createdAt,value
2019-05-30T00:02:07.557Z,3.17
2019-05-30T00:04:40.497Z,2.97
2019-05-30T00:07:17.482Z,3.47
2019-05-30T00:09:51.613Z,3.80
2019-05-30T00:12:24.462Z,3.47
2019-05-30T00:14:58.780Z,3.20
2019-05-30T00:17:30.969Z,3.17
2019-05-30T00:20:05.810Z,3.30
2019-05-30T00:22:39.994Z,3.63
2019-05-30T00:25:47.502Z,2.70
2019-05-30T00:28:19.719Z,3.43
2019-05-30T00:31:07.369Z,3.60
2019-05-30T00:33:39.890Z,3.00
2019-05-30T00:36:15.132Z,3.57
2019-05-30T00:38:47.128Z,3.00
2019-05-30T00:41:23.561Z,3.70
2019-05-30T00:43:57.841Z,2.80
2019-05-30T00:46:34.899Z,3.50
2019-05-30T00:49:07.340Z,3.10
2019-05-30T00:51:40.123Z,3.20
2019-05-30T00:54:15.602Z,3.77
2019-05-30T00:56:52.009Z,3.20
2019-05-30T00:59:27.227Z,3.60
2019-05-30T01:02:00.956Z,3.10
2019-05-30T01:04:33.220Z,3.43
2019-05-30T01:07:11.166Z,4.50
2019-05-30T01:09:50.966Z,3.90
2019-05-30T01:12:26.443Z,3.50
2019-05-30T01:15:01.114Z,3.50
2019-05-30T01:17:35.747Z,3.90
2019-05-30T01:20:13.402Z,4.27
2019-05-30T01:23:07.763Z,4.10
2019-05-30T01:25:40.136Z,3.20
2019-05-30T01:28:14.700Z,4.07
2019-05-30T01:30:59.103Z,3.80
2019-05-30T01:33:20.262Z,3.77
2019-05-30T01:36:15.682Z,3.23
2019-05-30T01:38:49.281Z,3.90
2019-05-30T01:41:25.720Z,3.40
2019-05-30T01:44:03.985Z,3.70
2019-05-30T01:46:37.321Z,3.60
2019-05-30T01:49:10.890Z,3.10
2019-05-30T01:51:45.238Z,3.27
2019-05-30T01:54:17.158Z,3.50
2019-05-30T01:56:49.208Z,3.70
2019-05-30T01:59:23.485Z,3.20
2019-05-30T02:01:56.533Z,3.33
2019-05-30T02:04:29.188Z,3.10
2019-05-30T02:07:03.326Z,3.23
2019-05-30T02:09:38.130Z,3.43
2019-05-30T02:12:10.299Z,2.70
2019-05-30T02:14:43.473Z,2.30
2019-05-30T02:17:23.809Z,2.70
2019-05-30T02:19:59.567Z,2.90
2019-05-30T02:22:32.584Z,2.33
2019-05-30T02:25:06.486Z,3.00
2019-05-30T02:27:49.379Z,2.80
2019-05-30T02:30:36.102Z,2.77
2019-05-30T02:33:10.520Z,2.70
2019-05-30T02:35:44.293Z,3.00
2019-05-30T02:38:15.518Z,2.43
2019-05-30T02:41:08.142Z,2.77
2019-05-30T02:43:41.610Z,2.90
2019-05-30T02:46:14.400Z,2.40
2019-05-30T02:48:58.888Z,2.60
2019-05-30T02:51:24.451Z,2.13
2019-05-30T02:54:01.361Z,2.50
2019-05-30T02:56:37.885Z,2.60
2019-05-30T02:59:13.600Z,2.60
2019-05-30T03:02:01.179Z,3.37
2019-05-30T03:04:22.715Z,2.90
2019-05-30T03:06:58.938Z,2.90
2019-05-30T03:09:30.832Z,3.07
2019-05-30T03:12:06.972Z,2.17
2019-05-30T03:14:41.647Z,3.03
2019-05-30T03:17:14.670Z,2.40
2019-05-30T03:19:48.672Z,2.43
2019-05-30T03:22:21.034Z,2.50
2019-05-30T03:24:55.750Z,3.70
2019-05-30T03:27:28.033Z,2.40
2019-05-30T03:30:05.242Z,3.07
2019-05-30T03:33:03.738Z,3.00
2019-05-30T03:35:41.723Z,2.83
2019-05-30T03:38:08.800Z,3.10
2019-05-30T03:40:46.040Z,3.20
2019-05-30T03:43:19.317Z,2.43
2019-05-30T03:46:13.190Z,2.90
2019-05-30T03:48:48.324Z,2.43
2019-05-30T03:51:21.010Z,2.53
2019-05-30T03:53:52.766Z,3.10
2019-05-30T03:56:34.277Z,2.70
2019-05-30T03:59:14.821Z,2.63
2019-05-30T04:02:24.073Z,2.40
2019-05-30T04:05:06.722Z,2.90
2019-05-30T04:07:45.573Z,2.60
2019-05-30T04:10:32.171Z,3.00
2019-05-30T04:13:39.893Z,3.17
2019-05-30T04:16:15.986Z,2.90
2019-05-30T04:18:50.087Z,3.40
2019-05-30T04:21:23.370Z,3.23
2019-05-30T04:23:56.987Z,3.03
2019-05-30T04:26:28.296Z,3.00
2019-05-30T04:29:02.057Z,3.10
2019-05-30T04:31:35.780Z,3.70
2019-05-30T04:34:10.116Z,2.70
2019-05-30T04:36:43.800Z,3.10
2019-05-30T04:39:19.167Z,3.70
2019-05-30T04:41:53.143Z,3.33
2019-05-30T04:44:25.112Z,3.10
2019-05-30T04:46:58.055Z,3.17
2019-05-30T04:49:30.307Z,3.47
2019-05-30T04:52:03.380Z,2.90
2019-05-30T04:54:37.162Z,3.00
2019-05-30T04:57:12.700Z,3.33
2019-05-30T04:59:48.488Z,3.10
2019-05-30T05:02:25.369Z,3.40
2019-05-30T05:04:59.219Z,3.23
2019-05-30T05:07:33.339Z,3.70
2019-05-30T05:10:11.898Z,3.63
2019-05-30T05:13:01.060Z,3.43
2019-05-30T05:15:34.318Z,3.57
2019-05-30T05:18:07.138Z,3.27
2019-05-30T05:20:42.567Z,3.23
2019-05-30T05:23:25.008Z,3.13
2019-05-30T05:26:01.267Z,3.43
2019-05-30T05:28:35.124Z,3.40
2019-05-30T05:31:07.502Z,3.20
2019-05-30T05:33:53.663Z,3.17
2019-05-30T05:36:34.935Z,3.30
2019-05-30T05:39:07.879Z,3.20
2019-05-30T05:41:40.334Z,2.77
2019-05-30T05:44:14.405Z,2.93
2019-05-30T05:46:46.681Z,2.80
2019-05-30T05:49:20.625Z,3.10
2019-05-30T05:51:51.831Z,2.87
2019-05-30T05:54:25.638Z,3.00
2019-05-30T05:56:58.645Z,2.90
2019-05-30T05:59:31.533Z,3.50
2019-05-30T06:02:04.541Z,2.80
2019-05-30T06:04:37.509Z,2.57
2019-05-30T06:07:10.955Z,3.60
2019-05-30T06:09:43.579Z,2.70
2019-05-30T06:12:19.677Z,2.07
2019-05-30T06:14:52.850Z,2.43
2019-05-30T06:17:26.477Z,2.93
2019-05-30T06:19:59.557Z,2.57
2019-05-30T06:22:33.842Z,2.93
2019-05-30T06:25:06.830Z,2.70
2019-05-30T06:27:40.799Z,3.00
2019-05-30T06:30:15.664Z,2.50
2019-05-30T06:32:51.517Z,2.27
2019-05-30T06:35:35.471Z,2.40
2019-05-30T06:38:07.603Z,2.53
2019-05-30T06:40:54.456Z,3.00
2019-05-30T06:43:28.267Z,3.37
2019-05-30T06:46:03.097Z,2.43
2019-05-30T06:48:34.938Z,2.17
2019-05-30T06:51:08.555Z,2.33
2019-05-30T06:53:40.843Z,2.40
2019-05-30T06:56:13.671Z,2.37
2019-05-30T06:58:49.195Z,2.23
2019-05-30T07:01:25.823Z,2.73
2019-05-30T07:03:58.762Z,2.60
2019-05-30T07:06:33.331Z,2.10
2019-05-30T07:09:10.451Z,2.57
2019-05-30T07:11:45.442Z,2.60
2019-05-30T07:14:18.882Z,2.53
2019-05-30T07:16:59.952Z,2.70
2019-05-30T07:19:37.727Z,2.93
2019-05-30T07:22:11.028Z,2.93
2019-05-30T07:24:49.890Z,2.70
2019-05-30T07:27:26.102Z,2.60
2019-05-30T07:30:00.593Z,2.50
2019-05-30T07:32:32.314Z,2.90
2019-05-30T07:35:08.694Z,2.70
2019-05-30T07:37:46.591Z,2.93
2019-05-30T07:40:31.284Z,2.27
2019-05-30T07:43:05.352Z,2.60
2019-05-30T07:45:46.896Z,2.27
2019-05-30T07:48:30.603Z,2.50
2019-05-30T07:51:06.872Z,2.87
2019-05-30T07:53:40.917Z,2.10
2019-05-30T07:56:25.027Z,2.57
2019-05-30T07:59:34.288Z,2.70
2019-05-30T08:02:42.568Z,2.23
2019-05-30T08:05:29.084Z,2.40
2019-05-30T08:08:03.113Z,2.23
2019-05-30T08:10:42.714Z,2.13
2019-05-30T08:13:14.119Z,2.40
2019-05-30T08:16:15.944Z,2.73
2019-05-30T08:18:48.626Z,2.00
2019-05-30T08:21:23.316Z,2.07
2019-05-30T08:23:56.158Z,2.50
2019-05-30T08:26:28.429Z,2.43
2019-05-30T08:29:01.391Z,2.10
2019-05-30T08:31:51.277Z,4.37
2019-05-30T08:34:25.152Z,2.30
2019-05-30T08:37:01.474Z,3.10
2019-05-30T08:39:33.428Z,2.40
2019-05-30T08:42:08.404Z,2.47
2019-05-30T08:44:41.188Z,2.37
2019-05-30T08:47:14.228Z,2.47
2019-05-30T08:49:48.301Z,2.40
2019-05-30T08:52:30.273Z,2.50
2019-05-30T08:55:05.725Z,2.40
2019-05-30T08:57:38.698Z,2.30
2019-05-30T09:00:12.987Z,2.50
2019-05-30T09:02:58.529Z,3.00
2019-05-30T09:06:03.495Z,2.73
2019-05-30T09:08:28.908Z,2.50
2019-05-30T09:11:04.017Z,2.20
2019-05-30T09:14:01.615Z,2.80
2019-05-30T09:16:34.275Z,2.97
2019-05-30T09:19:10.779Z,2.83
2019-05-30T09:21:45.409Z,2.50
2019-05-30T09:24:18.333Z,2.63
2019-05-30T09:27:17.619Z,2.30
2019-05-30T09:29:51.201Z,2.30
2019-05-30T09:32:24.368Z,2.20
2019-05-30T09:34:57.372Z,2.33
2019-05-30T09:37:33.860Z,2.10
2019-05-30T09:40:11.072Z,2.07
2019-05-30T09:42:57.276Z,2.60
2019-05-30T09:46:19.748Z,2.20
2019-05-30T09:48:59.227Z,2.40
2019-05-30T09:51:33.545Z,2.33
2019-05-30T09:54:09.315Z,2.00
2019-05-30T09:56:51.355Z,2.20
2019-05-30T09:59:27.370Z,2.30
2019-05-30T10:02:07.904Z,1.80
2019-05-30T10:05:40.417Z,1.90
2019-05-30T10:08:18.817Z,2.10
2019-05-30T10:11:10.807Z,1.80
2019-05-30T10:13:47.257Z,2.00
2019-05-30T10:16:20.325Z,2.17
2019-05-30T10:18:54.950Z,1.83
2019-05-30T10:21:28.317Z,1.77
2019-05-30T10:24:04.949Z,1.70
2019-05-30T10:26:42.339Z,1.67
2019-05-30T10:29:31.370Z,2.53
2019-05-30T10:32:04.335Z,1.50
2019-05-30T10:34:47.947Z,2.07
2019-05-30T10:37:40.713Z,1.70
2019-05-30T10:40:26.388Z,2.03
2019-05-30T10:43:19.250Z,1.43
2019-05-30T10:46:04.700Z,1.50
2019-05-30T10:48:38.870Z,1.80
2019-05-30T10:51:15.806Z,2.00
2019-05-30T10:53:54.067Z,2.20
2019-05-30T10:56:25.904Z,1.90
2019-05-30T10:59:01.857Z,1.90
2019-05-30T11:01:39.269Z,1.60
2019-05-30T11:04:12.772Z,1.83
2019-05-30T11:07:18.371Z,2.23
2019-05-30T11:09:57.791Z,1.90
2019-05-30T11:12:29.015Z,2.90
2019-05-30T11:15:05.409Z,1.90
2019-05-30T11:17:39.608Z,2.10
2019-05-30T11:20:12.863Z,1.70
2019-05-30T11:23:01.163Z,1.67
2019-05-30T11:25:48.458Z,1.90
2019-05-30T11:28:27.200Z,2.63
2019-05-30T11:31:04.708Z,1.70
2019-05-30T11:33:38.319Z,2.20
2019-05-30T11:36:11.045Z,1.50
2019-05-30T11:38:45.061Z,1.80
2019-05-30T11:41:19.319Z,2.10
2019-05-30T11:43:53.571Z,2.20
2019-05-30T11:46:30.399Z,1.87
2019-05-30T11:49:07.351Z,1.70
2019-05-30T11:51:53.896Z,1.97
2019-05-30T11:54:25.112Z,1.73
2019-05-30T11:57:00.851Z,1.70
2019-05-30T11:59:32.075Z,1.70
2019-05-30T12:02:09.076Z,1.97
2019-05-30T12:04:42.374Z,1.70
2019-05-30T12:07:14.677Z,1.80
2019-05-30T12:09:47.141Z,2.10
2019-05-30T12:12:27.333Z,2.20
2019-05-30T12:15:01.482Z,2.50
2019-05-30T12:17:35.187Z,1.90
2019-05-30T12:20:10.265Z,2.03
2019-05-30T12:22:53.873Z,1.77
2019-05-30T12:25:46.225Z,1.70
2019-05-30T12:28:29.067Z,2.27
2019-05-30T12:31:16.738Z,1.90
2019-05-30T12:33:54.209Z,1.37
2019-05-30T12:36:52.328Z,2.20
2019-05-30T12:39:27.950Z,1.57
2019-05-30T12:42:03.354Z,1.90
2019-05-30T12:44:38.068Z,1.90
2019-05-30T12:47:35.929Z,2.00
2019-05-30T12:50:33.117Z,1.77
2019-05-30T12:53:28.818Z,1.53
2019-05-30T12:56:02.651Z,2.10
2019-05-30T12:58:35.734Z,3.90
2019-05-30T13:01:10.068Z,3.40
2019-05-30T13:03:41.352Z,3.47
2019-05-30T13:06:40.066Z,5.27
2019-05-30T13:09:18.400Z,6.97
2019-05-30T13:11:50.865Z,4.87
2019-05-30T13:14:25.068Z,4.27
2019-05-30T13:16:59.467Z,3.53
2019-05-30T13:19:32.973Z,4.00
2019-05-30T13:22:07.595Z,3.33
2019-05-30T13:24:49.028Z,3.90
2019-05-30T13:27:23.064Z,3.87
2019-05-30T13:29:55.979Z,3.43
2019-05-30T13:32:29.079Z,3.80
2019-05-30T13:35:03.410Z,3.50
2019-05-30T13:37:35.982Z,3.37
2019-05-30T13:40:38.339Z,3.27
2019-05-30T13:43:11.779Z,3.43
2019-05-30T13:45:44.733Z,3.50
2019-05-30T13:48:17.785Z,3.57
2019-05-30T13:51:04.839Z,3.87
2019-05-30T13:53:40.133Z,3.50
2019-05-30T13:56:11.684Z,3.80
2019-05-30T13:58:45.793Z,3.10
2019-05-30T14:01:24.004Z,6.63
2019-05-30T14:03:58.070Z,4.67
2019-05-30T14:06:38.558Z,4.10
2019-05-30T14:09:10.607Z,3.70
2019-05-30T14:11:44.584Z,5.13
2019-05-30T14:14:19.792Z,6.30
2019-05-30T14:16:53.330Z,4.30
2019-05-30T14:19:35.647Z,5.10
2019-05-30T14:22:13.031Z,4.30
2019-05-30T14:24:46.596Z,4.40
2019-05-30T14:27:19.677Z,4.67
2019-05-30T14:29:54.103Z,4.20
2019-05-30T14:32:31.554Z,3.87
2019-05-30T14:35:06.424Z,4.13
2019-05-30T14:37:38.938Z,4.20
2019-05-30T14:40:13.992Z,3.53
2019-05-30T14:43:05.238Z,4.13
2019-05-30T14:45:40.017Z,3.87
2019-05-30T14:48:19.792Z,3.60
2019-05-30T14:51:08.708Z,5.03
2019-05-30T14:53:40.887Z,4.47
2019-05-30T14:56:13.957Z,4.23
2019-05-30T14:58:51.264Z,4.50
2019-05-30T15:01:24.949Z,4.33
2019-05-30T15:03:58.178Z,4.33
2019-05-30T15:06:29.404Z,4.40
2019-05-30T15:09:15.350Z,3.90
2019-05-30T15:11:38.993Z,3.97
2019-05-30T15:14:11.052Z,3.03
2019-05-30T15:16:42.360Z,4.07
2019-05-30T15:19:17.621Z,3.77
2019-05-30T15:21:51.201Z,4.00
2019-05-30T15:24:24.083Z,3.40
2019-05-30T15:26:56.477Z,3.40
2019-05-30T15:29:31.025Z,3.77
2019-05-30T15:32:02.256Z,3.67
2019-05-30T15:34:34.536Z,3.70
2019-05-30T15:37:08.628Z,3.70
2019-05-30T15:39:43.759Z,3.10
2019-05-30T15:42:17.749Z,3.70
2019-05-30T15:44:49.268Z,3.00
2019-05-30T15:47:23.440Z,3.80
2019-05-30T15:49:56.519Z,3.87
2019-05-30T15:52:33.454Z,3.70
2019-05-30T15:55:09.276Z,3.20
2019-05-30T15:57:42.908Z,3.37
2019-05-30T16:00:37.076Z,3.20
2019-05-30T16:03:16.417Z,4.00
2019-05-30T16:05:52.002Z,3.37
2019-05-30T16:08:24.657Z,3.30
2019-05-30T16:11:09.237Z,3.60
2019-05-30T16:13:45.556Z,2.60
2019-05-30T16:16:38.782Z,3.70
2019-05-30T16:18:56.434Z,3.13
2019-05-30T16:21:30.449Z,3.10
2019-05-30T16:24:04.899Z,3.63
2019-05-30T16:26:39.723Z,3.50
2019-05-30T16:29:13.708Z,2.90
2019-05-30T16:31:47.459Z,2.90
2019-05-30T16:34:20.449Z,2.83
2019-05-30T16:36:56.183Z,4.10
2019-05-30T16:39:28.844Z,3.40
2019-05-30T16:42:02.432Z,7.80
2019-05-30T16:44:38.506Z,4.73
2019-05-30T16:47:14.300Z,4.40
2019-05-30T16:49:50.040Z,3.77
2019-05-30T16:52:23.892Z,3.60
2019-05-30T16:54:58.121Z,3.20
2019-05-30T16:57:30.527Z,3.40
2019-05-30T17:00:05.788Z,3.93
2019-05-30T17:02:38.386Z,3.63
2019-05-30T17:05:12.420Z,3.43
2019-05-30T17:07:58.313Z,3.30
2019-05-30T17:10:34.739Z,3.43
2019-05-30T17:13:08.688Z,2.73
2019-05-30T17:15:41.779Z,3.40
2019-05-30T17:18:16.066Z,2.80
2019-05-30T17:20:51.147Z,3.73
2019-05-30T17:23:26.975Z,4.10
2019-05-30T17:25:59.667Z,3.50
2019-05-30T17:28:32.870Z,3.50
2019-05-30T17:31:08.545Z,3.60
2019-05-30T17:33:41.798Z,3.60
2019-05-30T17:36:18.101Z,4.77
2019-05-30T17:38:52.000Z,3.60
2019-05-30T17:41:24.854Z,4.30
2019-05-30T17:43:57.549Z,3.60
2019-05-30T17:46:30.106Z,4.90
2019-05-30T17:49:07.390Z,4.23
2019-05-30T17:51:39.204Z,3.73
2019-05-30T17:54:11.950Z,4.67
2019-05-30T17:56:45.669Z,4.73
2019-05-30T17:59:17.856Z,4.10
2019-05-30T18:01:50.866Z,4.50
2019-05-30T18:04:26.897Z,4.33
2019-05-30T18:06:59.834Z,4.50
2019-05-30T18:09:33.951Z,4.40
2019-05-30T18:12:07.754Z,4.40
2019-05-30T18:14:39.860Z,3.63
2019-05-30T18:17:13.689Z,3.57
2019-05-30T18:19:45.049Z,20.80
2019-05-30T18:22:18.198Z,18.30
2019-05-30T18:24:51.912Z,6.93
2019-05-30T18:27:25.917Z,4.50
2019-05-30T18:29:57.357Z,3.53
2019-05-30T18:32:30.292Z,4.40
2019-05-30T18:35:05.044Z,3.43
2019-05-30T18:37:40.574Z,3.90
2019-05-30T18:40:42.177Z,3.80
2019-05-30T18:43:15.046Z,4.50
2019-05-30T18:45:49.908Z,4.70
2019-05-30T18:48:27.132Z,5.60
2019-05-30T18:51:10.465Z,5.87
2019-05-30T18:53:42.149Z,5.87
2019-05-30T18:56:16.306Z,5.20
2019-05-30T18:58:49.056Z,4.03
2019-05-30T19:01:29.674Z,4.80
2019-05-30T19:04:39.948Z,5.17
2019-05-30T19:07:30.902Z,4.93
2019-05-30T19:10:48.837Z,4.27
2019-05-30T19:13:27.051Z,4.00
2019-05-30T19:15:59.150Z,4.60
2019-05-30T19:18:32.102Z,5.47
2019-05-30T19:21:06.247Z,5.43
2019-05-30T19:23:39.873Z,5.80
2019-05-30T19:26:14.028Z,4.93
2019-05-30T19:28:49.607Z,5.37
2019-05-30T19:31:23.863Z,6.97
2019-05-30T19:33:58.733Z,6.23
2019-05-30T19:36:31.031Z,5.93
2019-05-30T19:39:08.347Z,6.00
2019-05-30T19:41:54.029Z,6.33
2019-05-30T19:44:17.440Z,7.07
2019-05-30T19:46:49.687Z,7.40
2019-05-30T19:49:21.318Z,6.47
2019-05-30T19:51:54.267Z,6.73
2019-05-30T19:54:26.514Z,7.27
2019-05-30T19:57:01.081Z,6.20
2019-05-30T19:59:33.945Z,6.40
2019-05-30T20:02:08.912Z,6.83
2019-05-30T20:04:41.178Z,7.23
2019-05-30T20:07:12.378Z,7.70
2019-05-30T20:10:00.220Z,7.93
2019-05-30T20:12:21.284Z,6.80
2019-05-30T20:14:53.541Z,7.27
2019-05-30T20:17:29.841Z,6.03
2019-05-30T20:20:01.670Z,5.73
2019-05-30T20:22:38.246Z,6.37
2019-05-30T20:25:12.009Z,5.97
2019-05-30T20:27:55.815Z,5.87
2019-05-30T20:30:37.457Z,5.37
2019-05-30T20:33:12.140Z,5.40
2019-05-30T20:35:47.059Z,12.07
2019-05-30T20:38:20.464Z,7.63
2019-05-30T20:40:55.183Z,6.70
2019-05-30T20:43:27.378Z,8.37
2019-05-30T20:46:22.428Z,7.90
2019-05-30T20:48:48.053Z,5.87
2019-05-30T20:51:22.612Z,6.00
2019-05-30T20:53:56.562Z,6.00
2019-05-30T20:56:29.786Z,6.03
2019-05-30T20:59:02.625Z,6.23
2019-05-30T21:01:50.371Z,5.67
2019-05-30T21:04:26.322Z,6.50
2019-05-30T21:06:58.687Z,5.80
2019-05-30T21:09:30.471Z,5.80
2019-05-30T21:12:03.457Z,5.00
2019-05-30T21:14:37.202Z,6.27
2019-05-30T21:17:08.814Z,5.73
2019-05-30T21:19:42.096Z,5.63
2019-05-30T21:22:17.543Z,5.20
2019-05-30T21:24:49.568Z,5.07
2019-05-30T21:27:20.891Z,4.87
2019-05-30T21:29:53.751Z,5.00
2019-05-30T21:32:29.631Z,6.17
2019-05-30T21:35:02.913Z,5.70
2019-05-30T21:37:35.888Z,6.40
2019-05-30T21:40:11.029Z,6.80
2019-05-30T21:43:05.807Z,6.63
2019-05-30T21:45:51.595Z,5.90
2019-05-30T21:48:23.859Z,6.10
2019-05-30T21:50:57.363Z,4.07
2019-05-30T21:53:29.480Z,4.73
2019-05-30T21:56:02.008Z,4.70
2019-05-30T21:58:35.911Z,4.20
2019-05-30T22:01:37.429Z,5.00
2019-05-30T22:04:11.203Z,4.40
2019-05-30T22:06:43.138Z,3.90
2019-05-30T22:09:16.470Z,4.77
2019-05-30T22:11:49.648Z,3.93
2019-05-30T22:14:27.122Z,3.60
2019-05-30T22:17:01.900Z,4.07
2019-05-30T22:19:33.474Z,3.37
2019-05-30T22:22:05.961Z,3.80
2019-05-30T22:24:42.215Z,3.40
2019-05-30T22:27:15.183Z,4.10
2019-05-30T22:29:50.853Z,3.50
2019-05-30T22:32:24.385Z,3.07
2019-05-30T22:35:00.317Z,3.83
2019-05-30T22:37:33.624Z,3.33
2019-05-30T22:40:09.140Z,3.20
2019-05-30T22:42:48.175Z,3.00
2019-05-30T22:45:50.296Z,3.00
2019-05-30T22:48:37.955Z,3.80
2019-05-30T22:51:27.635Z,3.30
2019-05-30T22:54:20.367Z,2.93
2019-05-30T22:57:13.866Z,2.57
2019-05-30T22:59:53.039Z,2.90
2019-05-30T23:02:37.148Z,3.10
2019-05-30T23:05:10.509Z,2.80
2019-05-30T23:08:02.133Z,2.00
2019-05-30T23:11:15.310Z,2.43
2019-05-30T23:13:52.244Z,2.90
2019-05-30T23:16:26.790Z,2.40
2019-05-30T23:19:00.355Z,3.23
2019-05-30T23:21:37.455Z,2.47
2019-05-30T23:24:11.519Z,2.47
2019-05-30T23:26:57.924Z,2.90
2019-05-30T23:29:31.411Z,2.13
2019-05-30T23:32:06.932Z,2.67
2019-05-30T23:34:40.375Z,2.47
2019-05-30T23:37:12.551Z,2.83
2019-05-30T23:39:48.749Z,2.10
2019-05-30T23:42:20.693Z,2.50
2019-05-30T23:44:57.457Z,2.70
2019-05-30T23:47:28.933Z,2.30
2019-05-30T23:50:02.125Z,2.10
2019-05-30T23:52:34.027Z,2.60
2019-05-30T23:55:06.927Z,2.50
2019-05-30T23:57:40.471Z,2.77
